Time;durP1;ratioP1;P1;durP2;ratioP2;P2;SDS_P1;SDS_P2;PMS_P1;PMS_P2;Temp;Humidity;BMP_temperature;BMP_pressure;BME280_temperature;BME280_humidity;BME280_pressure;Samples;Min_cycle;Max_cycle;Signal;HPM_P1;HPM_P2
2022/10/17 00:01:10;;;;;;;3.00;1.60;;;17.00;99.90;;;;;;5075217;28;20496;-67
2022/10/17 00:03:37;;;;;;;3.03;1.63;;;16.90;99.90;;;;;;5074298;28;20137;-67
2022/10/17 00:06:07;;;;;;;4.25;2.25;;;16.80;99.90;;;;;;5074764;28;20036;-67
2022/10/17 00:08:33;;;;;;;;;;;16.80;99.90;;;;;;5075482;28;20098;-67
2022/10/17 00:11:02;;;;;;;2.35;1.60;;;16.80;99.90;;;;;;5075026;28;19912;-67
2022/10/17 00:13:28;;;;;;;3.47;2.50;;;16.80;99.90;;;;;;5074767;28;20507;-67
2022/10/17 00:15:55;;;;;;;2.28;2.08;;;16.90;99.90;;;;;;5074804;28;20051;-67
2022/10/17 00:18:21;;;;;;;3.78;1.77;;;16.80;99.90;;;;;;5074797;28;20036;-67
2022/10/17 00:20:47;;;;;;;5.05;1.77;;;16.70;99.90;;;;;;5075023;28;20058;-67
2022/10/17 00:23:13;;;;;;;3.15;2.00;;;16.60;99.90;;;;;;5075039;28;20449;-67
2022/10/17 00:25:39;;;;;;;2.33;1.63;;;16.70;99.90;;;;;;5075029;28;20044;-67
2022/10/17 00:28:07;;;;;;;1.83;1.50;;;16.70;99.90;;;;;;5074794;28;20044;-67
2022/10/17 00:30:33;;;;;;;2.35;1.75;;;16.70;99.90;;;;;;5074796;28;20046;-67
2022/10/17 00:32:59;;;;;;;6.25;1.95;;;16.60;99.90;;;;;;5074750;28;20563;-67
2022/10/17 00:35:24;;;;;;;2.00;1.60;;;16.60;99.90;;;;;;5074513;28;20123;-68
2022/10/17 00:37:50;;;;;;;6.00;1.92;;;16.50;99.90;;;;;;5074311;28;20047;-67
2022/10/17 00:40:16;;;;;;;3.67;1.63;;;16.50;99.90;;;;;;5074564;28;20040;-67
2022/10/17 00:42:42;;;;;;;2.65;1.60;;;16.60;99.90;;;;;;5074531;28;20024;-67
2022/10/17 00:45:27;;;;;;;4.03;1.70;;;16.60;99.90;;;;;;5074449;28;20043;-67
2022/10/17 00:47:59;;;;;;;3.08;1.50;;;16.60;99.90;;;;;;5073661;28;20052;-67
2022/10/17 00:50:27;;;;;;;8.48;2.10;;;16.70;99.90;;;;;;5074106;28;20037;-67
2022/10/17 00:52:55;;;;;;;5.30;2.03;;;16.70;99.90;;;;;;5073988;28;20131;-67
2022/10/17 00:55:28;;;;;;;3.50;1.73;;;16.60;99.90;;;;;;5074276;28;20526;-67
2022/10/17 00:57:55;;;;;;;5.70;1.88;;;16.60;99.90;;;;;;5067528;28;20048;-67
2022/10/17 01:00:21;;;;;;;3.22;1.90;;;16.50;99.90;;;;;;5051986;28;20037;-67
2022/10/17 01:02:47;;;;;;;3.95;1.90;;;16.60;99.90;;;;;;5053472;28;20041;-67
2022/10/17 01:05:15;;;;;;;4.32;1.63;;;16.60;99.90;;;;;;5054251;28;20110;-67
2022/10/17 01:07:41;;;;;;;3.45;2.00;;;16.60;99.90;;;;;;5054094;28;20037;-67
2022/10/17 01:10:09;;;;;;;6.25;1.63;;;16.70;99.90;;;;;;5054098;28;20102;-67
2022/10/17 01:12:53;;;;;;;4.25;1.63;;;16.70;99.90;;;;;;5054094;28;20033;-67
2022/10/17 01:15:48;;;;;;;2.63;1.40;;;16.60;99.90;;;;;;5053806;28;20540;-67
2022/10/17 01:18:52;;;;;;;5.25;1.70;;;16.60;99.90;;;;;;5045187;28;20044;-67
2022/10/17 01:21:36;;;;;;;3.45;1.58;;;16.60;99.90;;;;;;5043152;28;20112;-67
2022/10/17 01:24:13;;;;;;;4.60;1.58;;;16.40;99.90;;;;;;5053599;28;20175;-67
2022/10/17 01:27:03;;;;;;;2.03;1.45;;;16.60;99.90;;;;;;5053738;28;20400;-67
2022/10/17 01:29:39;;;;;;;2.58;1.35;;;16.60;99.90;;;;;;5053772;28;20554;-67
2022/10/17 01:32:17;;;;;;;5.03;1.60;;;16.50;99.90;;;;;;5053604;28;20138;-67
2022/10/17 01:34:58;;;;;;;2.15;1.60;;;16.60;99.90;;;;;;5053542;28;20049;-67
2022/10/17 01:37:38;;;;;;;4.80;1.77;;;16.60;99.90;;;;;;5053523;28;20071;-67
2022/10/17 01:40:04;;;;;;;3.38;1.88;;;16.60;99.90;;;;;;5053752;28;20132;-67
2022/10/17 01:42:53;;;;;;;3.85;1.80;;;16.70;99.90;;;;;;5053756;28;20467;-67
2022/10/17 01:45:34;;;;;;;2.25;1.63;;;16.70;99.90;;;;;;5053254;28;20131;-67
2022/10/17 01:48:06;;;;;;;3.35;1.63;;;16.80;99.90;;;;;;5053634;28;20051;-67
2022/10/17 01:50:36;;;;;;;5.05;1.48;;;16.90;99.90;;;;;;5053635;28;20497;-67
2022/10/17 01:53:26;;;;;;;2.60;1.50;;;16.80;99.90;;;;;;5053633;28;20515;-67
2022/10/17 01:55:55;;;;;;;3.65;1.45;;;16.90;99.90;;;;;;5053017;28;20120;-67
2022/10/17 01:58:32;;;;;;;3.08;1.20;;;16.80;99.90;;;;;;5053369;28;20056;-67
2022/10/17 02:01:01;;;;;;;3.83;1.67;;;16.80;99.90;;;;;;5053734;28;20040;-67
2022/10/17 02:03:28;;;;;;;1.75;1.48;;;16.80;99.90;;;;;;5053601;28;20041;-67
2022/10/17 02:05:54;;;;;;;3.30;1.40;;;16.80;99.90;;;;;;5053342;28;20178;-67
2022/10/17 02:08:39;;;;;;;2.80;1.40;;;16.70;99.90;;;;;;5054816;28;20128;-67
2022/10/17 02:11:22;;;;;;;5.43;1.52;;;16.70;99.90;;;;;;5073655;28;20093;-67
2022/10/17 02:14:11;;;;;;;2.65;1.30;;;16.90;99.90;;;;;;5073599;28;20051;-67
2022/10/17 02:16:55;;;;;;;2.92;1.80;;;16.80;99.90;;;;;;5073527;28;20567;-67
2022/10/17 02:19:29;;;;;;;1.83;1.35;;;16.80;99.90;;;;;;5073548;28;20044;-67
2022/10/17 02:22:16;;;;;;;4.60;1.50;;;16.80;99.90;;;;;;5073385;28;20071;-67
2022/10/17 02:25:01;;;;;;;2.85;1.38;;;16.80;99.90;;;;;;5073116;28;20036;-67
2022/10/17 02:27:51;;;;;;;7.22;1.60;;;16.90;99.90;;;;;;5075355;28;20053;-67
2022/10/17 02:30:38;;;;;;;5.18;1.58;;;16.90;99.90;;;;;;5076864;28;20047;-67
2022/10/17 02:33:13;;;;;;;2.15;1.48;;;16.70;99.90;;;;;;5076213;28;20051;-67
2022/10/17 02:35:44;;;;;;;5.65;1.48;;;16.60;99.90;;;;;;5077027;28;20047;-67
2022/10/17 02:38:12;;;;;;;5.25;1.70;;;16.50;99.90;;;;;;5076974;28;20048;-67
2022/10/17 02:40:39;;;;;;;3.33;1.42;;;16.60;99.90;;;;;;5076792;28;20039;-67
2022/10/17 02:43:06;;;;;;;5.35;1.35;;;16.50;99.90;;;;;;5076711;28;20048;-67
2022/10/17 02:45:35;;;;;;;3.67;1.42;;;16.40;99.90;;;;;;5076706;28;20060;-67
2022/10/17 02:48:33;;;;;;;3.25;1.48;;;16.50;99.90;;;;;;5076735;28;20049;-67
2022/10/17 02:51:02;;;;;;;4.97;1.40;;;16.50;99.90;;;;;;5076832;28;20037;-67
2022/10/17 02:53:39;;;;;;;3.97;1.60;;;16.50;99.90;;;;;;5076691;28;20037;-67
2022/10/17 02:56:13;;;;;;;3.00;1.60;;;16.50;99.90;;;;;;5076354;28;20140;-67
2022/10/17 02:58:41;;;;;;;1.95;1.42;;;16.40;99.90;;;;;;5076580;28;20097;-67
2022/10/17 03:01:07;;;;;;;6.38;1.60;;;16.50;99.90;;;;;;5076409;28;20576;-67
2022/10/17 03:03:33;;;;;;;3.03;1.55;;;16.50;99.90;;;;;;5076355;28;20047;-67
2022/10/17 03:05:59;;;;;;;2.25;1.55;;;16.50;99.90;;;;;;5076474;28;20040;-67
2022/10/17 03:08:25;;;;;;;2.70;1.60;;;16.60;99.90;;;;;;5076266;28;20078;-67
2022/10/17 03:10:51;;;;;;;2.38;1.48;;;16.60;99.90;;;;;;5076288;28;20059;-67
2022/10/17 03:13:17;;;;;;;2.72;1.45;;;16.60;99.90;;;;;;5076532;28;20056;-67
2022/10/17 03:15:43;;;;;;;3.92;1.30;;;16.60;99.90;;;;;;5076425;28;20059;-67
2022/10/17 03:18:08;;;;;;;4.22;1.38;;;16.60;99.90;;;;;;5076305;28;20028;-67
2022/10/17 03:20:34;;;;;;;4.00;2.03;;;16.60;99.90;;;;;;5076271;28;20045;-67
2022/10/17 03:23:00;;;;;;;3.05;1.58;;;16.50;99.90;;;;;;5076108;28;20051;-67
2022/10/17 03:25:26;;;;;;;7.63;1.45;;;16.50;99.90;;;;;;5076182;28;20400;-67
2022/10/17 03:27:52;;;;;;;3.53;1.35;;;16.50;99.90;;;;;;5076033;28;20040;-67
2022/10/17 03:30:18;;;;;;;2.55;1.20;;;16.50;99.90;;;;;;5076051;28;20043;-67
2022/10/17 03:32:44;;;;;;;2.08;1.52;;;16.50;99.90;;;;;;5075981;28;20028;-67
2022/10/17 03:35:09;;;;;;;2.38;1.20;;;16.40;99.90;;;;;;5075808;28;20040;-67
2022/10/17 03:37:35;;;;;;;2.33;1.50;;;16.40;99.90;;;;;;5075396;28;20043;-67
2022/10/17 03:40:01;;;;;;;2.25;1.13;;;16.30;99.90;;;;;;5074414;28;20082;-67
2022/10/17 03:42:27;;;;;;;3.17;1.45;;;16.30;99.90;;;;;;5075739;28;20054;-67
2022/10/17 03:44:52;;;;;;;3.25;1.70;;;16.30;99.90;;;;;;5075689;28;20028;-67
2022/10/17 03:47:18;;;;;;;1.83;1.35;;;16.20;99.90;;;;;;5075563;28;20047;-67
2022/10/17 03:49:44;;;;;;;2.47;1.48;;;16.30;99.90;;;;;;5075177;28;20451;-67
2022/10/17 03:52:11;;;;;;;2.95;1.33;;;16.30;99.90;;;;;;5075296;28;20399;-67
2022/10/17 03:54:37;;;;;;;1.48;1.23;;;16.30;99.90;;;;;;5075532;28;20044;-67
2022/10/17 03:57:03;;;;;;;6.50;1.55;;;16.30;99.90;;;;;;5074877;28;20051;-67
2022/10/17 03:59:29;;;;;;;3.33;1.85;;;16.20;99.90;;;;;;5074877;28;20041;-67
2022/10/17 04:01:55;;;;;;;2.40;1.50;;;16.20;99.90;;;;;;5074339;28;20055;-67
2022/10/17 04:04:21;;;;;;;4.35;1.38;;;16.10;99.90;;;;;;5074795;28;20127;-67
2022/10/17 04:06:46;;;;;;;2.42;1.38;;;16.10;99.90;;;;;;5075169;28;20032;-67
2022/10/17 04:09:12;;;;;;;1.67;1.50;;;16.10;99.90;;;;;;5075190;28;20036;-67
2022/10/17 04:11:38;;;;;;;1.77;1.27;;;16.10;99.90;;;;;;5075157;28;20044;-67
2022/10/17 04:14:04;;;;;;;4.88;1.40;;;16.10;99.90;;;;;;5075133;28;20118;-67
2022/10/17 04:16:30;;;;;;;4.57;1.73;;;16.10;99.90;;;;;;5074989;28;20032;-67
2022/10/17 04:18:58;;;;;;;2.75;1.58;;;16.10;99.90;;;;;;5074896;28;20044;-67
2022/10/17 04:21:26;;;;;;;3.58;1.65;;;16.20;99.90;;;;;;5074916;28;20037;-67
2022/10/17 04:23:56;;;;;;;1.63;1.30;;;16.10;99.90;;;;;;5074933;28;20131;-67
2022/10/17 04:26:22;;;;;;;1.92;1.40;;;16.10;99.90;;;;;;5074767;28;20496;-67
2022/10/17 04:28:48;;;;;;;1.98;1.52;;;16.10;99.90;;;;;;5074182;28;20143;-67
2022/10/17 04:31:14;;;;;;;3.58;1.40;;;16.20;99.90;;;;;;5074617;28;20044;-67
2022/10/17 04:33:40;;;;;;;3.75;1.70;;;16.10;99.90;;;;;;5074729;28;20089;-67
2022/10/17 04:36:10;;;;;;;3.72;1.77;;;16.10;99.90;;;;;;5074349;28;20045;-67
2022/10/17 04:38:36;;;;;;;2.03;1.33;;;16.10;99.90;;;;;;5074521;28;20097;-67
2022/10/17 04:41:04;;;;;;;2.53;1.58;;;16.00;99.90;;;;;;5074251;28;20310;-67
2022/10/17 04:43:32;;;;;;;2.08;1.35;;;16.00;99.90;;;;;;5074230;28;20040;-67
2022/10/17 04:45:58;;;;;;;3.60;1.52;;;16.00;99.90;;;;;;5074436;28;20028;-67
2022/10/17 04:48:24;;;;;;;1.45;1.13;;;16.00;99.90;;;;;;5074424;28;20147;-67
2022/10/17 04:50:54;;;;;;;3.58;1.42;;;16.00;99.90;;;;;;5074117;28;20131;-67
2022/10/17 04:53:21;;;;;;;4.15;1.80;;;16.10;99.90;;;;;;5074504;28;20036;-67
2022/10/17 04:55:46;;;;;;;2.55;1.42;;;16.10;99.90;;;;;;5074326;28;20031;-67
2022/10/17 04:58:12;;;;;;;6.18;1.58;;;16.10;99.90;;;;;;5074281;28;20131;-67
2022/10/17 05:00:38;;;;;;;6.80;1.70;;;16.10;99.90;;;;;;5074009;28;20090;-67
2022/10/17 05:03:04;;;;;;;4.75;1.30;;;16.00;99.90;;;;;;5067093;28;20048;-67
2022/10/17 05:05:29;;;;;;;2.90;1.50;;;16.00;99.90;;;;;;5052451;28;20025;-67
2022/10/17 05:07:55;;;;;;;2.08;1.63;;;16.00;99.90;;;;;;5053960;28;20059;-67
2022/10/17 05:10:21;;;;;;;2.13;1.50;;;16.00;99.90;;;;;;5054138;28;20036;-67
2022/10/17 05:12:48;;;;;;;5.50;2.28;;;16.00;99.90;;;;;;5054134;28;20045;-67
2022/10/17 05:15:14;;;;;;;4.82;1.45;;;16.00;99.90;;;;;;5053867;28;20439;-67
2022/10/17 05:17:40;;;;;;;7.25;2.33;;;16.00;99.90;;;;;;5065983;28;20036;-67
2022/10/17 05:20:07;;;;;;;5.88;1.80;;;16.00;99.90;;;;;;5073680;28;20040;-67
2022/10/17 05:22:33;;;;;;;3.17;1.85;;;16.00;99.90;;;;;;5065670;28;20043;-67
2022/10/17 05:24:59;;;;;;;2.33;1.48;;;16.00;99.90;;;;;;5073854;28;20040;-67
2022/10/17 05:27:24;;;;;;;5.93;1.58;;;16.00;99.90;;;;;;5070049;28;20049;-67
2022/10/17 05:29:50;;;;;;;4.28;1.80;;;16.00;99.90;;;;;;5073674;28;20124;-67
2022/10/17 05:32:16;;;;;;;2.00;1.40;;;16.20;99.90;;;;;;5054212;28;20040;-67
2022/10/17 05:34:42;;;;;;;4.25;2.25;;;16.20;99.90;;;;;;5053383;28;20049;-67
2022/10/17 05:37:08;;;;;;;3.75;2.33;;;16.30;99.90;;;;;;5065838;28;20045;-67
2022/10/17 05:39:40;;;;;;;5.13;2.63;;;16.20;99.90;;;;;;5072502;28;20075;-67
2022/10/17 05:42:06;;;;;;;2.47;1.58;;;16.40;99.90;;;;;;5076101;28;20044;-67
2022/10/17 05:44:32;;;;;;;2.85;1.52;;;16.50;99.90;;;;;;5085991;28;20044;-67
2022/10/17 05:46:58;;;;;;;5.50;1.73;;;16.50;99.90;;;;;;5081770;28;20070;-67
2022/10/17 05:49:24;;;;;;;4.13;2.03;;;16.40;99.90;;;;;;5071998;28;20511;-68
2022/10/17 05:51:49;;;;;;;4.88;2.08;;;16.50;99.90;;;;;;5081547;28;20127;-67
2022/10/17 05:54:15;;;;;;;3.63;1.42;;;16.50;99.90;;;;;;5071609;28;20487;-67
2022/10/17 05:56:41;;;;;;;2.40;1.50;;;16.60;99.90;;;;;;5069452;28;20495;-67
2022/10/17 05:59:07;;;;;;;8.65;1.83;;;16.60;99.90;;;;;;5070254;28;20090;-67
2022/10/17 06:01:32;;;;;;;2.13;1.50;;;16.60;99.90;;;;;;5072564;28;20055;-66
2022/10/17 06:03:58;;;;;;;3.00;1.83;;;16.60;99.90;;;;;;5075647;28;20102;-66
2022/10/17 06:06:24;;;;;;;2.75;1.52;;;16.50;99.90;;;;;;5077132;28;20036;-66
2022/10/17 06:08:50;;;;;;;2.17;1.63;;;16.50;99.90;;;;;;5077245;28;20139;-66
2022/10/17 06:11:15;;;;;;;2.63;1.70;;;16.50;99.90;;;;;;5077447;28;20033;-66
2022/10/17 06:13:41;;;;;;;2.63;1.50;;;16.40;99.90;;;;;;5076851;28;20098;-66
2022/10/17 06:16:08;;;;;;;2.28;1.50;;;16.50;99.90;;;;;;5077343;28;20900;-66
2022/10/17 06:18:33;;;;;;;3.50;1.60;;;16.70;99.90;;;;;;5077160;28;20391;-67
2022/10/17 06:21:11;;;;;;;3.72;1.42;;;16.70;99.90;;;;;;5069606;28;20037;-66
2022/10/17 06:23:36;;;;;;;2.60;1.60;;;16.60;99.90;;;;;;5073657;28;20079;-66
2022/10/17 06:26:04;;;;;;;2.70;1.52;;;16.60;99.90;;;;;;5075516;28;20436;-66
2022/10/17 06:28:30;;;;;;;1.88;1.00;;;16.70;99.90;;;;;;5075657;28;20520;-67
2022/10/17 06:30:56;;;;;;;2.83;1.60;;;16.80;99.90;;;;;;5076543;28;20399;-66
2022/10/17 06:33:22;;;;;;;2.50;1.60;;;16.70;99.90;;;;;;5076456;28;20099;-66
2022/10/17 06:35:53;;;;;;;3.60;1.30;;;16.80;99.90;;;;;;5067257;28;20040;-66
2022/10/17 06:38:19;;;;;;;1.70;1.35;;;17.00;99.90;;;;;;5056324;28;20404;-66
2022/10/17 06:40:45;;;;;;;3.88;1.55;;;17.00;99.90;;;;;;5068296;28;20484;-66
2022/10/17 06:43:11;;;;;;;4.05;1.67;;;17.00;99.90;;;;;;5076719;28;20094;-66
2022/10/17 06:45:40;;;;;;;4.03;1.80;;;17.00;99.90;;;;;;5076802;28;20028;-67
2022/10/17 06:48:06;;;;;;;2.75;1.58;;;17.10;99.90;;;;;;5076623;28;20101;-68
2022/10/17 06:50:33;;;;;;;4.38;1.60;;;17.20;99.90;;;;;;5076818;28;20032;-67
2022/10/17 06:52:58;;;;;;;1.70;1.40;;;17.40;99.90;;;;;;5076803;28;20043;-68
2022/10/17 06:55:24;;;;;;;2.22;1.17;;;17.50;99.90;;;;;;5076669;28;20044;-67
2022/10/17 06:57:51;;;;;;;2.42;1.75;;;17.60;99.90;;;;;;5076749;28;20032;-67
2022/10/17 07:00:17;;;;;;;4.28;1.35;;;17.60;99.90;;;;;;5076156;28;20048;-67
2022/10/17 07:02:43;;;;;;;1.65;1.30;;;17.70;99.90;;;;;;5075516;28;20052;-67
2022/10/17 07:05:09;;;;;;;4.10;1.38;;;17.80;99.90;;;;;;5062828;28;20518;-67
2022/10/17 07:07:35;;;;;;;1.48;1.17;;;17.90;99.90;;;;;;5056388;28;20037;-67
2022/10/17 07:10:02;;;;;;;3.25;1.35;;;18.00;99.90;;;;;;5056414;28;20097;-67
2022/10/17 07:12:28;;;;;;;6.10;1.45;;;18.10;99.90;;;;;;5055945;28;20048;-67
2022/10/17 07:14:54;;;;;;;2.70;1.45;;;18.40;99.90;;;;;;5056579;28;20041;-67
2022/10/17 07:17:19;;;;;;;2.05;1.40;;;18.30;99.90;;;;;;5056506;28;20114;-67
2022/10/17 07:19:45;;;;;;;1.73;1.40;;;18.50;99.90;;;;;;5056260;28;20043;-66
2022/10/17 07:22:12;;;;;;;2.95;1.55;;;18.50;99.90;;;;;;5056108;28;20048;-67
2022/10/17 07:24:38;;;;;;;2.33;1.25;;;18.40;99.90;;;;;;5056015;28;20044;-66
2022/10/17 07:27:03;;;;;;;1.83;1.30;;;18.70;99.90;;;;;;5056169;28;20044;-66
2022/10/17 07:29:29;;;;;;;1.85;1.15;;;18.60;99.90;;;;;;5056096;28;20049;-66
2022/10/17 07:31:55;;;;;;;1.60;1.20;;;18.70;99.90;;;;;;5054783;28;20037;-66
2022/10/17 07:34:21;;;;;;;1.83;1.45;;;18.90;99.90;;;;;;5056285;28;20393;-67
2022/10/17 07:36:47;;;;;;;2.33;1.42;;;19.00;99.90;;;;;;5056137;28;20053;-66
2022/10/17 07:39:12;;;;;;;1.58;1.20;;;19.20;99.90;;;;;;5055862;28;20045;-66
2022/10/17 07:41:38;;;;;;;3.92;1.30;;;19.30;99.90;;;;;;5055922;28;20044;-67
2022/10/17 07:44:04;;;;;;;2.35;1.30;;;19.40;99.90;;;;;;5055789;28;20044;-66
2022/10/17 07:46:30;;;;;;;4.20;1.30;;;19.50;99.90;;;;;;5055661;28;20037;-67
2022/10/17 07:48:56;;;;;;;2.25;1.27;;;19.50;99.90;;;;;;5055534;28;20515;-67
2022/10/17 07:51:22;;;;;;;2.90;1.67;;;19.40;99.90;;;;;;5065296;28;20050;-67
2022/10/17 07:53:48;;;;;;;2.30;1.20;;;19.50;99.90;;;;;;5075618;28;20404;-67
2022/10/17 07:56:14;;;;;;;2.13;1.27;;;19.50;99.90;;;;;;5075636;28;20047;-66
2022/10/17 07:58:39;;;;;;;2.80;1.25;;;19.60;99.90;;;;;;5075715;28;20041;-66
2022/10/17 08:01:13;;;;;;;2.83;1.30;;;19.50;99.90;;;;;;5075588;28;20138;-67
2022/10/17 08:03:45;;;;;;;2.05;1.15;;;19.70;99.90;;;;;;5075710;28;20511;-67
2022/10/17 08:06:12;;;;;;;1.55;1.38;;;19.80;99.90;;;;;;5075474;28;20047;-66
2022/10/17 08:08:37;;;;;;;1.33;1.05;;;20.00;99.90;;;;;;5075201;28;20106;-67
2022/10/17 08:11:06;;;;;;;1.75;1.25;;;20.20;99.90;;;;;;5075372;28;20040;-66
2022/10/17 08:13:32;;;;;;;3.38;1.42;;;20.20;99.90;;;;;;5075052;28;20096;-66
2022/10/17 08:16:00;;;;;;;2.17;1.20;;;20.10;99.90;;;;;;5075143;28;20024;-67
2022/10/17 08:18:25;;;;;;;3.25;1.13;;;20.20;99.90;;;;;;5074967;28;20480;-67
2022/10/17 08:20:51;;;;;;;3.00;1.42;;;20.40;99.90;;;;;;5075079;28;20036;-66
2022/10/17 08:23:17;;;;;;;3.55;1.10;;;20.60;99.90;;;;;;5074563;28;20461;-67
2022/10/17 08:25:42;;;;;;;2.88;1.25;;;20.70;99.90;;;;;;5073071;28;20384;-67
2022/10/17 08:28:08;;;;;;;3.75;1.20;;;20.80;99.90;;;;;;5074828;28;20040;-67
2022/10/17 08:30:35;;;;;;;2.72;1.48;;;20.90;99.90;;;;;;5074892;28;20067;-68
2022/10/17 08:33:01;;;;;;;2.17;1.10;;;20.70;99.90;;;;;;5075096;28;20059;-68
2022/10/17 08:35:27;;;;;;;2.83;1.20;;;20.80;99.90;;;;;;5074686;28;20139;-67
2022/10/17 08:37:52;;;;;;;1.90;1.30;;;20.80;99.90;;;;;;5074420;28;20510;-67
2022/10/17 08:40:27;;;;;;;3.97;1.05;;;21.00;99.90;;;;;;5074595;28;20109;-68
2022/10/17 08:43:20;;;;;;;3.58;1.35;;;21.00;99.90;;;;;;5074680;28;20040;-67
2022/10/17 08:46:01;;;;;;;1.77;1.30;;;21.00;99.90;;;;;;5074877;28;20036;-67
2022/10/17 08:48:31;;;;;;;1.77;1.40;;;21.20;99.90;;;;;;5074586;28;20052;-67
2022/10/17 08:51:23;;;;;;;2.33;1.20;;;21.30;99.90;;;;;;5074523;28;20395;-68
2022/10/17 08:53:52;;;;;;;2.20;1.00;;;21.40;99.90;;;;;;5074353;28;20773;-67
2022/10/17 08:56:22;;;;;;;3.50;1.63;;;21.30;99.90;;;;;;5074238;28;20044;-66
2022/10/17 08:58:48;;;;;;;2.63;1.38;;;21.30;99.90;;;;;;5074482;28;20132;-67
2022/10/17 09:01:52;;;;;;;2.63;1.50;;;21.30;99.90;;;;;;5074422;28;20464;-67
2022/10/17 09:04:41;;;;;;;1.77;1.13;;;21.50;99.90;;;;;;5062898;28;20510;-66
2022/10/17 09:07:21;;;;;;;4.28;1.40;;;21.90;99.90;;;;;;5068158;28;20489;-71
2022/10/17 09:10:03;;;;;;;;;;;21.90;99.90;;;;;;5057636;28;20051;-70
2022/10/17 09:12:55;;;;;;;4.90;1.20;;;22.20;99.90;;;;;;5052494;28;19916;-69
2022/10/17 09:15:55;;;;;;;1.02;0.93;;;22.40;99.90;;;;;;5045031;28;20029;-70
2022/10/17 09:18:31;;;;;;;3.30;1.55;;;22.80;99.90;;;;;;5054134;28;20032;-67
2022/10/17 09:21:12;;;;;;;3.47;1.10;;;23.10;99.90;;;;;;5054144;28;20044;-69
2022/10/17 09:23:51;;;;;;;0.98;0.80;;;23.00;99.90;;;;;;5054188;28;20075;-69
2022/10/17 09:26:17;;;;;;;3.40;1.33;;;23.10;99.90;;;;;;5053930;28;20033;-69
2022/10/17 09:28:43;;;;;;;2.60;1.08;;;23.20;99.90;;;;;;5053848;28;20519;-69
2022/10/17 09:31:22;;;;;;;2.60;1.23;;;22.80;99.90;;;;;;5053934;28;20504;-69
2022/10/17 09:33:51;;;;;;;1.13;0.80;;;22.80;99.90;;;;;;5053713;28;20037;-69
2022/10/17 09:36:33;;;;;;;3.85;1.00;;;23.30;99.90;;;;;;5053607;28;20539;-69
2022/10/17 09:39:03;;;;;;;1.85;1.45;;;23.20;99.90;;;;;;5053965;28;20045;-69
2022/10/17 09:41:31;;;;;;;2.63;1.35;;;23.20;99.90;;;;;;5054029;28;20033;-69
2022/10/17 09:44:07;;;;;;;2.67;1.40;;;23.10;99.90;;;;;;5060595;28;20055;-69
2022/10/17 09:46:36;;;;;;;2.80;1.17;;;22.90;99.90;;;;;;5073813;28;20217;-69
2022/10/17 09:49:28;;;;;;;1.33;0.90;;;23.20;99.90;;;;;;5072940;28;20431;-69
2022/10/17 09:51:54;;;;;;;1.20;0.90;;;23.30;99.90;;;;;;5073830;28;20373;-69
2022/10/17 09:54:24;;;;;;;2.00;1.15;;;23.10;99.90;;;;;;5073702;28;20499;-69
2022/10/17 09:57:09;;;;;;;;;;;23.20;99.90;;;;;;5074005;28;20037;-69
2022/10/17 09:59:37;;;;;;;3.20;1.35;;;22.90;99.90;;;;;;5073698;28;20349;-67
2022/10/17 10:02:18;;;;;;;2.22;1.30;;;23.00;99.90;;;;;;5073677;28;20039;-68
2022/10/17 10:04:56;;;;;;;2.22;1.45;;;22.70;99.90;;;;;;5066208;28;20041;-67
2022/10/17 10:07:26;;;;;;;1.55;1.15;;;23.00;99.90;;;;;;5054281;28;20045;-65
2022/10/17 10:09:53;;;;;;;1.20;1.10;;;22.80;99.90;;;;;;5068198;28;20432;-70
2022/10/17 10:12:23;;;;;;;1.40;0.90;;;22.80;99.90;;;;;;5070969;28;20067;-70
2022/10/17 10:14:49;;;;;;;2.47;1.25;;;22.80;99.90;;;;;;5071315;28;20035;-68
2022/10/17 10:17:32;;;;;;;1.05;0.90;;;22.90;99.90;;;;;;5070135;28;20036;-65
2022/10/17 10:19:58;;;;;;;3.97;1.23;;;23.10;99.90;;;;;;5070854;28;20055;-69
2022/10/17 10:22:24;;;;;;;1.50;1.10;;;23.00;99.90;;;;;;5072028;28;20028;-69
2022/10/17 10:25:08;;;;;;;1.45;1.10;;;23.10;99.90;;;;;;5073662;28;20039;-69
2022/10/17 10:27:34;;;;;;;1.58;1.00;;;23.20;99.90;;;;;;5073278;28;20048;-70
2022/10/17 10:30:00;;;;;;;1.98;0.98;;;23.60;99.90;;;;;;5073316;28;20047;-69
2022/10/17 10:32:33;;;;;;;1.35;1.00;;;23.40;99.90;;;;;;5073495;28;20032;-71
2022/10/17 10:35:07;;;;;;;3.20;1.75;;;23.40;99.90;;;;;;5073468;28;20037;-69
2022/10/17 10:37:43;;;;;;;2.85;1.27;;;23.40;99.90;;;;;;5073259;28;20044;-71
2022/10/17 10:40:20;;;;;;;2.97;1.00;;;23.50;99.90;;;;;;5073398;28;20040;-70
2022/10/17 10:42:51;;;;;;;2.90;1.10;;;23.70;99.90;;;;;;5073189;28;20051;-70
2022/10/17 10:45:26;;;;;;;1.25;0.90;;;23.80;99.90;;;;;;5073207;28;20037;-68
2022/10/17 10:48:00;;;;;;;1.65;0.98;;;23.60;99.90;;;;;;5073642;28;20048;-70
2022/10/17 10:50:37;;;;;;;1.85;0.98;;;23.80;99.90;;;;;;5074078;28;20040;-66
2022/10/17 10:53:29;;;;;;;1.10;1.00;;;24.00;99.90;;;;;;5074201;28;20032;-67
2022/10/17 10:56:03;;;;;;;1.92;1.00;;;23.70;99.90;;;;;;5065720;28;20044;-70
2022/10/17 10:58:36;;;;;;;1.00;0.90;;;23.50;99.90;;;;;;5074364;28;20503;-69
2022/10/17 11:01:12;;;;;;;2.45;1.15;;;23.70;99.90;;;;;;5074179;28;20044;-68
2022/10/17 11:04:03;;;;;;;1.55;1.05;;;23.70;99.90;;;;;;5074019;28;20585;-66
2022/10/17 11:06:35;;;;;;;2.05;1.17;;;23.70;99.90;;;;;;5074757;28;20131;-70
2022/10/17 11:09:25;;;;;;;1.88;0.82;;;23.80;99.90;;;;;;5070741;28;20053;-67
2022/10/17 11:12:10;;;;;;;4.88;1.13;;;23.70;99.90;;;;;;5074211;28;20036;-70
2022/10/17 11:14:45;;;;;;;1.25;1.10;;;24.00;99.90;;;;;;5075305;28;20044;-69
2022/10/17 11:17:35;;;;;;;1.20;0.98;;;24.10;99.90;;;;;;5076336;28;20046;-67
2022/10/17 11:20:24;;;;;;;0.82;0.82;;;24.40;99.90;;;;;;5076140;28;20048;-68
2022/10/17 11:23:20;;;;;;;6.28;1.27;;;24.50;99.90;;;;;;5076096;28;20048;-70
2022/10/17 11:25:49;;;;;;;3.90;1.20;;;24.50;99.90;;;;;;5075975;28;20036;-70
2022/10/17 11:28:18;;;;;;;2.97;1.30;;;24.50;99.90;;;;;;5076047;28;20060;-70
2022/10/17 11:30:54;;;;;;;1.55;1.00;;;24.50;99.90;;;;;;5075989;28;20036;-70
2022/10/17 11:33:42;;;;;;;1.50;1.10;;;24.30;99.90;;;;;;5075896;28;20067;-69
2022/10/17 11:36:10;;;;;;;2.05;1.23;;;24.00;99.90;;;;;;5075764;28;20484;-69
2022/10/17 11:38:40;;;;;;;2.15;0.90;;;23.90;99.90;;;;;;5073819;28;20079;-69
2022/10/17 11:41:16;;;;;;;2.15;1.15;;;24.10;99.90;;;;;;5075944;28;20086;-70
2022/10/17 11:43:58;;;;;;;1.55;1.10;;;24.40;99.90;;;;;;5076056;28;20062;-69
2022/10/17 11:46:27;;;;;;;1.38;1.10;;;24.50;99.90;;;;;;5075762;28;20041;-69
2022/10/17 11:49:05;;;;;;;2.03;1.10;;;24.30;99.90;;;;;;5075007;28;20048;-70
2022/10/17 11:51:56;;;;;;;2.45;1.30;;;24.30;99.90;;;;;;5055633;28;20094;-70
2022/10/17 11:54:30;;;;;;;4.00;1.45;;;24.50;99.90;;;;;;5055243;28;20492;-69
2022/10/17 11:57:02;;;;;;;2.00;1.20;;;24.40;99.90;;;;;;5053887;28;20128;-69
2022/10/17 12:00:07;;;;;;;1.05;0.80;;;23.90;99.90;;;;;;5052604;28;20083;-69
2022/10/17 12:02:47;;;;;;;1.15;0.90;;;24.10;99.90;;;;;;5055491;28;20135;-70
2022/10/17 12:05:36;;;;;;;1.75;1.00;;;24.10;99.90;;;;;;5055495;28;20120;-68
2022/10/17 12:08:24;;;;;;;5.25;0.90;;;24.00;99.90;;;;;;5055292;28;20053;-69
2022/10/17 12:10:58;;;;;;;1.73;1.17;;;24.10;99.90;;;;;;5055348;28;20094;-69
2022/10/17 12:13:27;;;;;;;2.42;1.08;;;24.00;99.90;;;;;;5058742;28;20040;-69
2022/10/17 12:15:57;;;;;;;4.28;1.25;;;24.10;99.90;;;;;;5055219;28;20037;-68
2022/10/17 12:18:26;;;;;;;2.45;1.02;;;24.10;99.60;;;;;;5055197;28;20477;-68
2022/10/17 12:20:56;;;;;;;2.72;1.00;;;24.20;99.90;;;;;;5055143;28;20044;-67
2022/10/17 12:23:30;;;;;;;0.77;0.77;;;24.30;99.90;;;;;;5055036;28;20377;-65
2022/10/17 12:26:02;;;;;;;1.90;0.80;;;24.50;99.50;;;;;;5054992;28;20037;-69
2022/10/17 12:28:31;;;;;;;1.60;0.63;;;24.60;99.20;;;;;;5054898;28;20049;-67
2022/10/17 12:31:24;;;;;;;3.20;1.00;;;24.50;98.40;;;;;;5054934;28;20041;-67
2022/10/17 12:34:01;;;;;;;0.95;0.85;;;24.50;99.10;;;;;;5055017;28;20048;-67
2022/10/17 12:36:27;;;;;;;1.30;0.98;;;24.30;98.40;;;;;;5054699;28;20049;-67
2022/10/17 12:39:01;;;;;;;2.85;0.70;;;24.40;99.30;;;;;;5054707;28;20361;-68
2022/10/17 12:41:39;;;;;;;4.43;1.10;;;24.60;99.90;;;;;;5054496;28;20094;-65
2022/10/17 12:44:14;;;;;;;1.17;0.90;;;24.30;99.00;;;;;;5054503;28;20041;-68
2022/10/17 12:47:01;;;;;;;3.67;1.17;;;24.20;99.30;;;;;;5054657;28;20114;-67
2022/10/17 12:49:39;;;;;;;3.58;0.93;;;24.30;98.50;;;;;;5054528;28;20500;-68
2022/10/17 12:52:31;;;;;;;5.63;0.98;;;24.30;98.90;;;;;;5054518;28;20511;-67
2022/10/17 12:55:03;;;;;;;2.33;1.10;;;24.40;99.90;;;;;;5052433;28;20040;-66
2022/10/17 12:57:34;;;;;;;2.78;1.05;;;24.30;99.50;;;;;;5053593;28;20113;-68
2022/10/17 13:00:47;;;;;;;2.42;0.80;;;24.00;99.50;;;;;;5053680;28;20043;-66
2022/10/17 13:03:20;;;;;;;1.80;1.05;;;24.30;99.90;;;;;;5052291;28;20036;-68
2022/10/17 13:05:59;;;;;;;2.15;1.20;;;24.40;99.90;;;;;;5054446;28;20467;-66
2022/10/17 13:08:43;;;;;;;2.60;0.90;;;24.30;99.40;;;;;;5072971;28;20143;-68
2022/10/17 13:11:10;;;;;;;2.67;1.20;;;24.30;99.90;;;;;;5071983;28;20037;-69